Terminal Aerodrome Forecast
Issued by NWS

Home | Current Version | Previous Version | Text Only | Print | Product List | Glossary On
Versions: 1 2 3 4 5 6 7 8 9 10 11 12 13 14 15 16 17
000
FTUS46 KLOX 031430 AAB
TAFPRB
TAF AMD
KPRB 031430Z 0314/0412 00000KT P6SM BKN002
     FM031700 VRB03KT P6SM BKN200
     FM032000 21010KT P6SM BKN200
     FM032200 21014G22KT P6SM BKN200
     FM040200 20008KT P6SM BKN200
     FM040700 VRB03KT P6SM BKN150
     FM041000 VRB03KT P6SM BKN020 BKN150=

USA.gov is the U.S. government's official web portal to all federal, state and local government web resources and services.